Camp Douglas, WI

15:38 CST le 19 décembre 2014 (GMT -0600)
Black River Falls Area | Change Station
CLOSE
Current Station
Aéroport
Location: Black River Falls,
Altitude: 837 ft
Stations météo à proximité

Alt. 837 ft 44.25 °N, 90.86 °W | Updated 23 minutes ago

Couvert
Couvert
29 ° F
Paraît 29 ° F
N
0
Vent Variable Vent de Nord

Aujourd'hui
Haut(e) -- | Bas -- ° F
--% Risque de précip.
Hier
Haut(e) -- | Bas -- ° F
Precip. -- pouce
7:31 AM 4:25 PM
Lune descendante, 6% visible
Pression 30.24 pouce
Visibilité 10.0 Miles terrestres
Nuages Couvert 3100 ft
Point de rosée 18 ° F
Humidité 64%
Précipitations 0.00 pouce
Profondeur de la couche neigeuse Non disponible.
UV 0 sur 12
Pollen .10 sur 12
Qualité de l'air Non disponible.
Flu Activity Non disponible.
METAR KBCK 192115Z AUTO 00000KT 10SM OVC031 M01/M07 A3024 RMK AO2 T10151075

More Conditions Fewer Conditions

Pression 30.24 pouce
Visibilité 10.0 Miles terrestres
Nuages Couvert 3100 ft
Point de rosée 18 ° F
Humidité 64%
Précipitations 0.00 pouce
Profondeur de la couche neigeuse Non disponible.
UV 0 sur 12
Pollen .10 sur 12
Qualité de l'air Non disponible.
Flu Activity Non disponible.
METAR KBCK 192115Z AUTO 00000KT 10SM OVC031 M01/M07 A3024 RMK AO2 T10151075

More Conditions Fewer Conditions

10-Day Weather Forecast

Almanac

Astronomie

Dec. 19, 2014 Lever Coucher
Temps réel
Crépuscule civil
Crépuscule nautique
Crépuscule astronomique
Lune
Durée de lumière visible
Longueur du jour
Tomorrow will be .
, % of the Moon is Illuminated

Extrêmes aujourd'hui

State Highs State Lows

Community

WunderPhotos

Upload Photos

1,779,059 Photos téléchargées !

WunderBlogs® & News

Nearby

Qualité de l'air

  Qualité de l'air Indice de la qualité de l'air Polluant
Not available.

Épaisseur de neige

Station Depth Altitude

Activité sismique

Ville Distance Mag. Time & Date
Minimum magnitude displayed is 2.5.

Températures des eaux côtières

Lieu Température

Stations météo à proximité